createdAt,value
2019-03-19T00:00:55.954Z,99.90
2019-03-19T00:03:25.487Z,99.90
2019-03-19T00:05:55.027Z,99.90
2019-03-19T00:08:24.637Z,99.90
2019-03-19T00:10:54.450Z,99.90
2019-03-19T00:13:24.068Z,99.90
2019-03-19T00:15:53.822Z,99.90
2019-03-19T00:18:23.309Z,99.90
2019-03-19T00:20:52.760Z,99.90
2019-03-19T00:23:22.264Z,99.90
2019-03-19T00:25:53.173Z,99.90
2019-03-19T00:28:22.971Z,99.90
2019-03-19T00:30:52.641Z,99.90
2019-03-19T00:33:22.278Z,99.90
2019-03-19T00:35:51.774Z,99.90
2019-03-19T00:38:21.613Z,99.90
2019-03-19T00:40:51.230Z,99.90
2019-03-19T00:43:20.876Z,99.90
2019-03-19T00:45:50.514Z,99.90
2019-03-19T00:48:20.096Z,99.90
2019-03-19T00:50:49.760Z,99.90
2019-03-19T00:53:19.372Z,99.90
2019-03-19T00:55:48.885Z,99.90
2019-03-19T00:58:18.543Z,99.90
2019-03-19T01:00:48.153Z,99.90
2019-03-19T01:03:17.967Z,99.90
2019-03-19T01:05:47.515Z,99.90
2019-03-19T01:08:17.193Z,99.90
2019-03-19T01:10:46.874Z,99.90
2019-03-19T01:13:16.389Z,99.90
2019-03-19T01:15:46.063Z,99.90
2019-03-19T01:18:15.748Z,99.90
2019-03-19T01:20:45.483Z,99.90
2019-03-19T01:23:15.225Z,99.90
2019-03-19T01:25:55.340Z,99.90
2019-03-19T01:28:16.559Z,99.90
2019-03-19T01:30:46.239Z,99.90
2019-03-19T01:33:15.994Z,99.90
2019-03-19T01:35:45.715Z,99.90
2019-03-19T01:38:15.432Z,99.90
2019-03-19T01:40:45.229Z,99.90
2019-03-19T01:43:14.765Z,99.90
2019-03-19T01:45:44.519Z,99.90
2019-03-19T01:48:14.188Z,99.90
2019-03-19T01:50:43.880Z,99.90
2019-03-19T01:53:13.433Z,99.90
2019-03-19T01:55:42.986Z,99.90
2019-03-19T01:58:12.685Z,99.90
2019-03-19T02:00:42.187Z,99.90
2019-03-19T02:03:12.170Z,99.90
2019-03-19T02:05:41.994Z,99.90
2019-03-19T02:08:11.663Z,99.90
2019-03-19T02:10:41.472Z,99.90
2019-03-19T02:13:11.184Z,99.90
2019-03-19T02:15:40.756Z,99.90
2019-03-19T02:18:10.402Z,99.90
2019-03-19T02:20:40.597Z,99.90
2019-03-19T02:23:10.400Z,99.90
2019-03-19T02:25:39.996Z,99.90
2019-03-19T02:28:09.752Z,99.90
2019-03-19T02:30:39.453Z,99.90
2019-03-19T02:33:09.055Z,99.90
2019-03-19T02:35:38.941Z,99.90
2019-03-19T02:38:08.682Z,99.90
2019-03-19T02:40:38.424Z,99.90
2019-03-19T02:43:08.201Z,99.90
2019-03-19T02:45:37.913Z,99.90
2019-03-19T02:48:07.668Z,99.90
2019-03-19T02:50:37.703Z,99.90
2019-03-19T02:53:07.637Z,99.90
2019-03-19T02:55:37.372Z,99.90
2019-03-19T02:58:07.988Z,99.90
2019-03-19T03:00:38.786Z,99.90
2019-03-19T03:03:08.627Z,99.90
2019-03-19T03:05:38.401Z,99.90
2019-03-19T03:08:08.093Z,99.90
2019-03-19T03:10:37.816Z,99.90
2019-03-19T03:13:07.789Z,99.90
2019-03-19T03:15:37.744Z,99.90
2019-03-19T03:18:07.885Z,99.90
2019-03-19T03:20:38.005Z,99.90
2019-03-19T03:23:08.005Z,99.90
2019-03-19T03:25:38.363Z,99.90
2019-03-19T03:28:08.646Z,99.90
2019-03-19T03:30:38.969Z,99.90
2019-03-19T03:33:09.563Z,99.90
2019-03-19T03:35:40.274Z,99.90
2019-03-19T03:38:12.697Z,99.90
2019-03-19T03:40:43.695Z,99.90
2019-03-19T03:43:13.979Z,99.90
2019-03-19T03:45:44.655Z,99.90
2019-03-19T03:48:15.255Z,99.90
2019-03-19T03:50:45.640Z,99.90
2019-03-19T03:53:15.925Z,99.90
2019-03-19T03:55:46.206Z,99.90
2019-03-19T03:58:16.900Z,99.90
2019-03-19T04:00:47.968Z,99.90
2019-03-19T04:03:18.123Z,99.90
2019-03-19T04:05:48.721Z,99.90
2019-03-19T04:08:19.062Z,99.90
2019-03-19T04:10:49.321Z,99.90
2019-03-19T04:13:19.433Z,99.90
2019-03-19T04:15:49.499Z,99.90
2019-03-19T04:18:19.494Z,99.90
2019-03-19T04:20:49.577Z,99.90
2019-03-19T04:23:19.900Z,99.90
2019-03-19T04:25:49.836Z,99.90
2019-03-19T04:28:19.893Z,99.90
2019-03-19T04:30:49.879Z,99.90
2019-03-19T04:33:19.927Z,99.90
2019-03-19T04:35:49.914Z,99.90
2019-03-19T04:38:19.859Z,99.90
2019-03-19T04:40:49.815Z,99.90
2019-03-19T04:43:19.673Z,99.90
2019-03-19T04:45:49.426Z,99.90
2019-03-19T04:48:19.150Z,99.90
2019-03-19T04:50:48.967Z,99.90
2019-03-19T04:53:18.708Z,99.90
2019-03-19T04:55:48.402Z,99.90
2019-03-19T04:58:19.037Z,99.90
2019-03-19T05:01:48.850Z,99.90
2019-03-19T05:04:21.822Z,99.90
2019-03-19T05:06:54.340Z,99.90
2019-03-19T05:09:47.451Z,99.90
2019-03-19T05:12:18.052Z,99.90
2019-03-19T05:14:58.910Z,99.90
2019-03-19T05:17:28.466Z,99.90
2019-03-19T05:19:57.945Z,99.90
2019-03-19T05:22:29.722Z,99.90
2019-03-19T05:24:59.238Z,99.90
2019-03-19T05:27:37.012Z,99.90
2019-03-19T05:29:59.884Z,99.90
2019-03-19T05:32:29.876Z,99.90
2019-03-19T05:34:59.283Z,99.90
2019-03-19T05:37:28.690Z,99.90
2019-03-19T05:39:58.063Z,99.90
2019-03-19T05:42:27.966Z,99.90
2019-03-19T05:44:57.310Z,99.90
2019-03-19T05:47:36.821Z,99.90
2019-03-19T05:49:58.948Z,99.90
2019-03-19T05:52:28.400Z,99.90
2019-03-19T05:54:57.741Z,99.90
2019-03-19T05:57:27.072Z,99.90
2019-03-19T05:59:56.419Z,99.90
2019-03-19T06:02:25.794Z,99.90
2019-03-19T06:04:55.222Z,99.90
2019-03-19T06:07:24.572Z,99.90
2019-03-19T06:09:53.983Z,99.90
2019-03-19T06:12:23.879Z,99.90
2019-03-19T06:14:53.344Z,99.90
2019-03-19T06:17:22.891Z,99.90
2019-03-19T06:19:52.349Z,99.90
2019-03-19T06:22:22.235Z,99.90
2019-03-19T06:24:54.285Z,99.90
2019-03-19T06:27:23.581Z,99.90
2019-03-19T06:29:52.904Z,99.90
2019-03-19T06:32:22.220Z,99.90
2019-03-19T06:34:51.577Z,99.90
2019-03-19T06:37:20.952Z,99.90
2019-03-19T06:39:50.849Z,99.90
2019-03-19T06:42:20.425Z,99.90
2019-03-19T06:44:49.770Z,99.90
2019-03-19T06:47:19.083Z,99.90
2019-03-19T06:49:48.444Z,99.90
2019-03-19T06:52:22.248Z,99.90
2019-03-19T06:54:51.635Z,99.90
2019-03-19T06:57:20.947Z,99.90
2019-03-19T06:59:50.280Z,99.90
2019-03-19T07:02:19.632Z,99.90
2019-03-19T07:04:48.960Z,99.90
2019-03-19T07:07:18.274Z,99.90
2019-03-19T07:09:47.582Z,99.90
2019-03-19T07:12:16.927Z,99.90
2019-03-19T07:14:46.249Z,99.90
2019-03-19T07:17:15.578Z,99.90
2019-03-19T07:19:44.888Z,99.90
2019-03-19T07:22:14.221Z,99.90
2019-03-19T07:24:43.524Z,99.90
2019-03-19T07:27:12.853Z,99.90
2019-03-19T07:29:42.334Z,99.90
2019-03-19T07:32:11.971Z,99.90
2019-03-19T07:34:41.490Z,99.90
2019-03-19T07:37:11.013Z,99.90
2019-03-19T07:39:40.457Z,99.90
2019-03-19T07:42:09.842Z,99.90
2019-03-19T07:44:39.226Z,99.90
2019-03-19T07:47:08.668Z,99.90
2019-03-19T07:49:38.096Z,99.90
2019-03-19T07:52:07.666Z,99.90
2019-03-19T07:54:37.229Z,99.90
2019-03-19T07:57:06.760Z,99.90
2019-03-19T07:59:36.299Z,99.90
2019-03-19T08:02:05.785Z,99.90
2019-03-19T08:04:35.356Z,99.90
2019-03-19T08:07:04.939Z,99.90
2019-03-19T08:09:34.515Z,99.90
2019-03-19T08:12:04.088Z,99.90
2019-03-19T08:14:33.648Z,99.90
2019-03-19T08:17:03.177Z,99.90
2019-03-19T08:19:32.676Z,99.90
2019-03-19T08:22:02.194Z,99.90
2019-03-19T08:24:31.823Z,99.90
2019-03-19T08:27:01.376Z,99.90
2019-03-19T08:29:30.914Z,99.90
2019-03-19T08:32:00.403Z,99.90
2019-03-19T08:34:29.933Z,99.90
2019-03-19T08:36:59.452Z,99.90
2019-03-19T08:39:28.879Z,99.90
2019-03-19T08:41:58.417Z,99.90
2019-03-19T08:44:28.210Z,99.90
2019-03-19T08:46:57.885Z,99.90
2019-03-19T08:49:27.441Z,99.90
2019-03-19T08:51:57.014Z,99.90
2019-03-19T08:54:26.587Z,99.90
2019-03-19T08:56:56.055Z,99.90
2019-03-19T08:59:25.563Z,99.90
2019-03-19T09:01:55.151Z,99.90
2019-03-19T09:04:24.636Z,99.90
2019-03-19T09:06:54.075Z,99.90
2019-03-19T09:09:23.579Z,99.90
2019-03-19T09:11:53.076Z,99.90
2019-03-19T09:14:22.833Z,99.90
2019-03-19T09:16:52.389Z,99.90
2019-03-19T09:19:21.980Z,99.90
2019-03-19T09:21:51.520Z,99.90
2019-03-19T09:24:21.221Z,99.90
2019-03-19T09:26:50.619Z,99.90
2019-03-19T09:29:20.049Z,99.90
2019-03-19T09:31:49.408Z,99.90
2019-03-19T09:34:18.741Z,99.90
2019-03-19T09:36:57.033Z,99.90
2019-03-19T09:39:20.841Z,99.90
2019-03-19T09:41:50.194Z,99.90
2019-03-19T09:44:19.529Z,99.90
2019-03-19T09:46:48.881Z,99.90
2019-03-19T09:49:18.203Z,99.90
2019-03-19T09:51:47.555Z,99.90
2019-03-19T09:54:16.888Z,99.90
2019-03-19T09:56:46.233Z,99.90
2019-03-19T09:59:15.573Z,99.90
2019-03-19T10:01:44.967Z,99.90
2019-03-19T10:04:14.264Z,98.50
2019-03-19T10:06:43.637Z,97.00
2019-03-19T10:09:13.010Z,96.40
2019-03-19T10:11:42.349Z,95.80
2019-03-19T10:14:11.673Z,97.00
2019-03-19T10:16:41.008Z,95.90
2019-03-19T10:19:10.348Z,96.50
2019-03-19T10:21:39.643Z,93.60
2019-03-19T10:24:08.995Z,90.90
2019-03-19T10:26:38.316Z,90.70
2019-03-19T10:29:07.650Z,88.60
2019-03-19T10:31:36.996Z,86.90
2019-03-19T10:34:06.320Z,88.20
2019-03-19T10:36:35.650Z,89.10
2019-03-19T10:39:09.048Z,86.70
2019-03-19T10:41:38.672Z,86.20
2019-03-19T10:44:07.999Z,84.70
2019-03-19T10:46:37.307Z,83.00
2019-03-19T10:49:06.640Z,83.20
2019-03-19T10:51:36.005Z,81.80
2019-03-19T10:54:05.349Z,85.30
2019-03-19T10:56:34.688Z,85.10
2019-03-19T10:59:04.023Z,82.70
2019-03-19T11:01:33.364Z,81.40
2019-03-19T11:04:02.701Z,84.10
2019-03-19T11:06:32.029Z,84.80
2019-03-19T11:09:01.369Z,82.60
2019-03-19T11:11:30.691Z,84.00
2019-03-19T11:14:00.020Z,83.90
2019-03-19T11:16:29.366Z,84.10
2019-03-19T11:18:58.661Z,80.60
2019-03-19T11:21:27.989Z,79.00
2019-03-19T11:23:57.311Z,80.40
2019-03-19T11:26:26.637Z,79.10
2019-03-19T11:28:56.025Z,79.60
2019-03-19T11:31:25.393Z,79.20
2019-03-19T11:33:54.749Z,77.40
2019-03-19T11:36:24.106Z,78.60
2019-03-19T11:38:57.901Z,79.30
2019-03-19T11:41:27.240Z,80.20
2019-03-19T11:43:56.558Z,80.90
2019-03-19T11:46:25.917Z,79.60
2019-03-19T11:48:55.252Z,75.40
2019-03-19T11:51:24.635Z,76.90
2019-03-19T11:53:53.944Z,76.30
2019-03-19T11:56:23.289Z,76.00
2019-03-19T11:58:52.612Z,76.20
2019-03-19T12:01:21.964Z,73.90
2019-03-19T12:03:52.360Z,72.80
2019-03-19T12:06:22.738Z,74.70
2019-03-19T12:08:53.233Z,75.00
2019-03-19T12:11:22.591Z,75.40
2019-03-19T12:13:51.958Z,75.40
2019-03-19T12:16:21.547Z,73.60
2019-03-19T12:18:50.876Z,70.80
2019-03-19T12:21:20.220Z,72.40
2019-03-19T12:23:49.542Z,73.30
2019-03-19T12:26:18.892Z,74.00
2019-03-19T12:28:48.203Z,73.10
2019-03-19T12:31:17.565Z,73.10
2019-03-19T12:33:50.222Z,73.30
2019-03-19T12:36:19.579Z,69.30
2019-03-19T12:38:48.928Z,69.30
2019-03-19T12:41:18.308Z,69.20
2019-03-19T12:43:47.642Z,70.40
2019-03-19T12:46:17.013Z,71.60
2019-03-19T12:48:46.346Z,71.00
2019-03-19T12:51:15.662Z,71.80
2019-03-19T12:53:45.017Z,69.60
2019-03-19T12:56:14.321Z,69.20
2019-03-19T12:58:43.668Z,68.60
2019-03-19T13:01:13.059Z,68.00
2019-03-19T13:03:42.473Z,68.70
2019-03-19T13:06:11.884Z,69.10
2019-03-19T13:08:41.268Z,68.30
2019-03-19T13:11:10.622Z,69.30
2019-03-19T13:13:40.962Z,68.80
2019-03-19T13:16:10.481Z,68.50
2019-03-19T13:18:39.821Z,68.00
2019-03-19T13:21:09.180Z,66.30
2019-03-19T13:23:38.513Z,68.00
2019-03-19T13:26:07.843Z,67.40
2019-03-19T13:28:37.215Z,66.60
2019-03-19T13:31:06.532Z,66.40
2019-03-19T13:33:37.471Z,66.80
2019-03-19T13:36:07.716Z,65.70
2019-03-19T13:38:37.056Z,65.50
2019-03-19T13:41:06.384Z,65.50
2019-03-19T13:43:35.740Z,65.50
2019-03-19T13:46:05.095Z,66.00
2019-03-19T13:48:34.424Z,64.70
2019-03-19T13:51:03.780Z,64.60
2019-03-19T13:53:33.119Z,63.30
2019-03-19T13:56:02.467Z,63.80
2019-03-19T13:58:31.809Z,65.30
2019-03-19T14:01:01.153Z,64.40
2019-03-19T14:03:30.485Z,64.00
2019-03-19T14:05:59.833Z,62.80
2019-03-19T14:08:29.196Z,61.50
2019-03-19T14:10:58.521Z,62.70
2019-03-19T14:13:27.858Z,62.10
2019-03-19T14:15:57.224Z,61.90
2019-03-19T14:18:26.633Z,62.60
2019-03-19T14:20:55.980Z,61.20
2019-03-19T14:23:25.315Z,61.80
2019-03-19T14:25:54.668Z,61.80
2019-03-19T14:28:24.006Z,61.30
2019-03-19T14:30:53.349Z,62.80
2019-03-19T14:33:22.676Z,60.90
2019-03-19T14:35:52.012Z,60.20
2019-03-19T14:38:21.343Z,59.30
2019-03-19T14:40:50.687Z,59.90
2019-03-19T14:43:20.086Z,61.40
2019-03-19T14:45:49.425Z,60.10
2019-03-19T14:48:18.771Z,59.80
2019-03-19T14:50:48.090Z,60.10
2019-03-19T14:53:17.428Z,60.00
2019-03-19T14:55:46.805Z,59.80
2019-03-19T14:58:16.204Z,59.20
2019-03-19T15:00:45.555Z,59.10
2019-03-19T15:03:14.932Z,59.30
2019-03-19T15:05:51.170Z,60.30
2019-03-19T15:08:20.490Z,59.60
2019-03-19T15:10:49.813Z,59.60
2019-03-19T15:13:19.198Z,60.10
2019-03-19T15:15:48.632Z,60.00
2019-03-19T15:18:17.965Z,61.00
2019-03-19T15:20:47.322Z,61.00
2019-03-19T15:23:16.705Z,62.60
2019-03-19T15:25:46.620Z,62.80
2019-03-19T15:28:16.082Z,62.80
2019-03-19T15:30:45.472Z,61.80
2019-03-19T15:33:14.887Z,62.10
2019-03-19T15:35:44.366Z,63.90
2019-03-19T15:38:13.890Z,63.70
2019-03-19T15:40:43.449Z,64.10
2019-03-19T15:43:12.844Z,64.30
2019-03-19T15:45:42.298Z,64.80
2019-03-19T15:48:11.748Z,65.20
2019-03-19T15:50:41.081Z,65.70
2019-03-19T15:53:10.495Z,64.80
2019-03-19T15:55:39.866Z,64.50
2019-03-19T15:58:09.615Z,63.80
2019-03-19T16:00:39.553Z,64.50
2019-03-19T16:03:10.438Z,65.10
2019-03-19T16:05:39.829Z,65.60
2019-03-19T16:08:09.245Z,65.50
2019-03-19T16:10:38.651Z,66.30
2019-03-19T16:13:08.070Z,65.40
2019-03-19T16:15:37.429Z,66.30
2019-03-19T16:18:06.774Z,67.20
2019-03-19T16:20:36.196Z,67.90
2019-03-19T16:23:05.559Z,68.30
2019-03-19T16:25:34.958Z,68.50
2019-03-19T16:28:04.384Z,68.50
2019-03-19T16:30:33.808Z,67.50
2019-03-19T16:33:03.258Z,67.70
2019-03-19T16:35:32.692Z,68.60
2019-03-19T16:38:02.062Z,69.70
2019-03-19T16:40:31.470Z,69.80
2019-03-19T16:43:00.839Z,69.80
2019-03-19T16:45:30.276Z,69.80
2019-03-19T16:47:59.654Z,69.90
2019-03-19T16:50:29.021Z,70.10
2019-03-19T16:52:58.393Z,70.40
2019-03-19T16:55:27.785Z,70.50
2019-03-19T16:57:57.332Z,70.60
2019-03-19T17:00:26.759Z,70.60
2019-03-19T17:02:56.145Z,70.90
2019-03-19T17:05:25.646Z,72.00
2019-03-19T17:07:55.254Z,71.80
2019-03-19T17:10:24.759Z,71.80
2019-03-19T17:12:54.296Z,71.70
2019-03-19T17:15:23.709Z,72.00
2019-03-19T17:17:53.254Z,72.20
2019-03-19T17:20:22.739Z,72.10
2019-03-19T17:22:52.235Z,72.60
2019-03-19T17:25:21.707Z,72.60
2019-03-19T17:27:51.151Z,72.80
2019-03-19T17:30:22.520Z,73.20
2019-03-19T17:32:51.978Z,73.10
2019-03-19T17:35:21.611Z,73.50
2019-03-19T17:37:51.024Z,74.00
2019-03-19T17:40:20.392Z,74.20
2019-03-19T17:42:49.755Z,75.10
2019-03-19T17:45:19.178Z,76.20
2019-03-19T17:47:48.747Z,76.60
2019-03-19T17:50:19.110Z,76.80
2019-03-19T17:52:49.245Z,77.50
2019-03-19T17:55:18.782Z,78.60
2019-03-19T17:57:48.486Z,80.30
2019-03-19T18:00:21.903Z,81.20
2019-03-19T18:02:51.448Z,81.90
2019-03-19T18:05:20.998Z,82.90
2019-03-19T18:07:50.386Z,83.90
2019-03-19T18:10:19.858Z,84.10
2019-03-19T18:12:49.332Z,86.20
2019-03-19T18:15:19.043Z,88.10
2019-03-19T18:17:48.546Z,88.70
2019-03-19T18:20:18.074Z,88.20
2019-03-19T18:22:47.593Z,90.10
2019-03-19T18:25:23.273Z,90.80
2019-03-19T18:28:31.973Z,91.00
2019-03-19T18:32:00.120Z,91.60
2019-03-19T18:34:26.975Z,92.70
2019-03-19T18:36:56.774Z,93.60
2019-03-19T18:39:26.545Z,94.00
2019-03-19T18:41:56.337Z,94.20
2019-03-19T18:44:25.995Z,94.70
2019-03-19T18:46:55.770Z,95.00
2019-03-19T18:49:25.510Z,95.50
2019-03-19T18:51:55.299Z,95.90
2019-03-19T18:54:24.843Z,96.00
2019-03-19T18:56:54.860Z,96.30
2019-03-19T18:59:24.700Z,96.20
2019-03-19T19:01:54.546Z,96.40
2019-03-19T19:04:24.089Z,96.60
2019-03-19T19:06:53.720Z,97.00
2019-03-19T19:09:23.137Z,97.30
2019-03-19T19:11:52.868Z,98.10
2019-03-19T19:14:22.418Z,98.40
2019-03-19T19:16:52.086Z,98.70
2019-03-19T19:19:22.003Z,99.50
2019-03-19T19:21:51.662Z,99.90
2019-03-19T19:24:21.320Z,99.90
2019-03-19T19:26:50.781Z,99.90
2019-03-19T19:29:20.379Z,99.90
2019-03-19T19:31:50.054Z,99.90
2019-03-19T19:34:19.548Z,99.90
2019-03-19T19:36:49.250Z,99.90
2019-03-19T19:39:18.996Z,99.90
2019-03-19T19:41:48.783Z,99.90
2019-03-19T19:44:18.292Z,99.90
2019-03-19T19:46:47.819Z,99.90
2019-03-19T19:49:17.422Z,99.90
2019-03-19T19:51:47.101Z,99.90
2019-03-19T19:54:16.663Z,99.90
2019-03-19T19:56:46.151Z,99.90
2019-03-19T19:59:15.920Z,99.90
2019-03-19T20:01:45.790Z,99.90
2019-03-19T20:04:15.579Z,99.90
2019-03-19T20:06:46.600Z,99.90
2019-03-19T20:09:16.133Z,99.90
2019-03-19T20:11:45.891Z,99.90
2019-03-19T20:14:15.422Z,99.90
2019-03-19T20:16:45.129Z,99.90
2019-03-19T20:19:14.942Z,99.90
2019-03-19T20:21:44.489Z,99.90
2019-03-19T20:24:14.122Z,99.90
2019-03-19T20:26:43.766Z,99.90
2019-03-19T20:29:13.449Z,99.90
2019-03-19T20:31:42.983Z,99.90
2019-03-19T20:34:12.624Z,99.90
2019-03-19T20:36:42.205Z,99.90
2019-03-19T20:39:11.921Z,99.90
2019-03-19T20:41:41.872Z,99.90
2019-03-19T20:44:11.717Z,99.90
2019-03-19T20:46:41.231Z,99.90
2019-03-19T20:49:10.866Z,99.90
2019-03-19T20:51:40.520Z,99.90
2019-03-19T20:54:10.177Z,99.90
2019-03-19T20:56:39.804Z,99.90
2019-03-19T20:59:09.476Z,99.90
2019-03-19T21:01:39.007Z,99.90
2019-03-19T21:04:08.782Z,99.90
2019-03-19T21:06:38.385Z,99.90
2019-03-19T21:09:08.893Z,99.90
2019-03-19T21:11:38.594Z,99.90
2019-03-19T21:14:08.255Z,99.90
2019-03-19T21:16:38.015Z,99.90
2019-03-19T21:19:07.947Z,99.90
2019-03-19T21:21:37.700Z,99.90
2019-03-19T21:24:07.562Z,99.90
2019-03-19T21:26:37.628Z,99.90
2019-03-19T21:29:07.203Z,99.90
2019-03-19T21:31:36.691Z,99.90
2019-03-19T21:34:06.216Z,99.90
2019-03-19T21:36:35.735Z,99.90
2019-03-19T21:39:13.629Z,99.90
2019-03-19T21:41:43.159Z,99.90
2019-03-19T21:44:12.761Z,99.90
2019-03-19T21:46:42.361Z,99.90
2019-03-19T21:49:11.976Z,99.90
2019-03-19T21:51:41.536Z,99.90
2019-03-19T21:54:11.059Z,99.90
2019-03-19T21:56:40.498Z,99.90
2019-03-19T21:59:09.988Z,99.90
2019-03-19T22:01:39.469Z,99.90
2019-03-19T22:04:09.043Z,99.90
2019-03-19T22:06:38.547Z,99.90
2019-03-19T22:09:08.333Z,99.90
2019-03-19T22:11:37.759Z,99.90
2019-03-19T22:14:07.232Z,99.90
2019-03-19T22:16:36.636Z,99.90
2019-03-19T22:19:06.250Z,99.90
2019-03-19T22:21:36.124Z,99.90
2019-03-19T22:24:06.241Z,99.90
2019-03-19T22:26:36.354Z,99.90
2019-03-19T22:29:06.575Z,99.90
2019-03-19T22:31:36.690Z,99.90
2019-03-19T22:34:14.086Z,99.90
2019-03-19T22:36:39.131Z,99.90
2019-03-19T22:39:10.457Z,99.90
2019-03-19T22:41:40.516Z,99.90
2019-03-19T22:44:16.430Z,99.90
2019-03-19T22:46:46.669Z,99.90
2019-03-19T22:49:16.563Z,99.90
2019-03-19T22:51:46.794Z,99.90
2019-03-19T22:54:16.841Z,99.90
2019-03-19T22:56:47.101Z,99.90
2019-03-19T22:59:17.097Z,99.90
2019-03-19T23:01:47.218Z,99.90
2019-03-19T23:04:26.949Z,99.90
2019-03-19T23:06:48.965Z,99.90
2019-03-19T23:09:19.286Z,99.90
2019-03-19T23:11:49.373Z,99.90
2019-03-19T23:14:20.200Z,99.90
2019-03-19T23:17:01.473Z,99.90
